sensor_id;sensor_type;location;lat;lon;timestamp;P1;durP1;ratioP1;P2;durP2;ratioP2
42770;SDS011;28426;42.872;25.314;2022-12-07T00:00:39;30.83;;;16.00;;
42770;SDS011;28426;42.872;25.314;2022-12-07T00:03:10;38.58;;;17.65;;
42770;SDS011;28426;42.872;25.314;2022-12-07T00:05:40;41.22;;;19.10;;
42770;SDS011;28426;42.872;25.314;2022-12-07T00:08:11;36.70;;;17.70;;
42770;SDS011;28426;42.872;25.314;2022-12-07T00:10:42;35.30;;;18.08;;
42770;SDS011;28426;42.872;25.314;2022-12-07T00:13:15;34.72;;;16.63;;
42770;SDS011;28426;42.872;25.314;2022-12-07T00:15:46;31.75;;;16.85;;
42770;SDS011;28426;42.872;25.314;2022-12-07T00:18:16;33.83;;;16.65;;
42770;SDS011;28426;42.872;25.314;2022-12-07T00:20:47;39.97;;;17.38;;
42770;SDS011;28426;42.872;25.314;2022-12-07T00:23:17;56.72;;;18.83;;
42770;SDS011;28426;42.872;25.314;2022-12-07T00:25:48;47.70;;;19.13;;
42770;SDS011;28426;42.872;25.314;2022-12-07T00:28:21;40.72;;;17.48;;
42770;SDS011;28426;42.872;25.314;2022-12-07T00:30:52;42.30;;;17.90;;
42770;SDS011;28426;42.872;25.314;2022-12-07T00:33:29;42.70;;;15.65;;
42770;SDS011;28426;42.872;25.314;2022-12-07T00:35:59;96.45;;;19.15;;
42770;SDS011;28426;42.872;25.314;2022-12-07T00:38:31;45.75;;;17.58;;
42770;SDS011;28426;42.872;25.314;2022-12-07T00:41:04;50.83;;;17.25;;
42770;SDS011;28426;42.872;25.314;2022-12-07T00:43:40;40.60;;;14.82;;
42770;SDS011;28426;42.872;25.314;2022-12-07T00:46:11;39.97;;;15.50;;
42770;SDS011;28426;42.872;25.314;2022-12-07T00:48:42;35.40;;;14.32;;
42770;SDS011;28426;42.872;25.314;2022-12-07T00:51:14;34.50;;;15.60;;
42770;SDS011;28426;42.872;25.314;2022-12-07T00:53:46;28.35;;;13.73;;
42770;SDS011;28426;42.872;25.314;2022-12-07T00:56:17;27.65;;;13.55;;
42770;SDS011;28426;42.872;25.314;2022-12-07T00:58:52;35.15;;;13.00;;
42770;SDS011;28426;42.872;25.314;2022-12-07T01:01:24;34.53;;;14.93;;
42770;SDS011;28426;42.872;25.314;2022-12-07T01:03:57;44.92;;;16.48;;
42770;SDS011;28426;42.872;25.314;2022-12-07T01:06:28;44.60;;;16.58;;
42770;SDS011;28426;42.872;25.314;2022-12-07T01:08:59;34.75;;;15.30;;
42770;SDS011;28426;42.872;25.314;2022-12-07T01:11:30;30.98;;;14.05;;
42770;SDS011;28426;42.872;25.314;2022-12-07T01:14:03;29.08;;;12.95;;
42770;SDS011;28426;42.872;25.314;2022-12-07T01:16:34;29.42;;;14.13;;
42770;SDS011;28426;42.872;25.314;2022-12-07T01:19:05;29.17;;;13.52;;
42770;SDS011;28426;42.872;25.314;2022-12-07T01:21:36;37.30;;;15.50;;
42770;SDS011;28426;42.872;25.314;2022-12-07T01:24:09;35.85;;;14.57;;
42770;SDS011;28426;42.872;25.314;2022-12-07T01:26:40;33.03;;;15.63;;
42770;SDS011;28426;42.872;25.314;2022-12-07T01:29:14;32.88;;;14.52;;
42770;SDS011;28426;42.872;25.314;2022-12-07T01:31:44;30.08;;;14.73;;
42770;SDS011;28426;42.872;25.314;2022-12-07T01:34:18;39.30;;;15.68;;
42770;SDS011;28426;42.872;25.314;2022-12-07T01:36:49;35.72;;;15.73;;
42770;SDS011;28426;42.872;25.314;2022-12-07T01:39:20;33.97;;;15.02;;
42770;SDS011;28426;42.872;25.314;2022-12-07T01:41:50;33.45;;;15.50;;
42770;SDS011;28426;42.872;25.314;2022-12-07T01:44:24;29.30;;;14.18;;
42770;SDS011;28426;42.872;25.314;2022-12-07T01:46:57;29.15;;;13.50;;
42770;SDS011;28426;42.872;25.314;2022-12-07T01:49:30;26.30;;;13.18;;
42770;SDS011;28426;42.872;25.314;2022-12-07T01:52:07;24.07;;;12.53;;
42770;SDS011;28426;42.872;25.314;2022-12-07T01:54:43;22.17;;;11.13;;
42770;SDS011;28426;42.872;25.314;2022-12-07T01:57:16;22.88;;;11.75;;
42770;SDS011;28426;42.872;25.314;2022-12-07T01:59:50;26.27;;;12.68;;
42770;SDS011;28426;42.872;25.314;2022-12-07T02:02:25;29.58;;;13.05;;
42770;SDS011;28426;42.872;25.314;2022-12-07T02:07:30;25.33;;;11.85;;
42770;SDS011;28426;42.872;25.314;2022-12-07T02:10:11;22.50;;;11.40;;
42770;SDS011;28426;42.872;25.314;2022-12-07T02:12:43;21.85;;;11.55;;
42770;SDS011;28426;42.872;25.314;2022-12-07T02:15:41;21.35;;;11.52;;
42770;SDS011;28426;42.872;25.314;2022-12-07T02:18:20;21.05;;;11.15;;
42770;SDS011;28426;42.872;25.314;2022-12-07T02:20:56;21.35;;;11.75;;
42770;SDS011;28426;42.872;25.314;2022-12-07T02:23:39;26.95;;;14.45;;
42770;SDS011;28426;42.872;25.314;2022-12-07T02:29:26;26.73;;;14.03;;
42770;SDS011;28426;42.872;25.314;2022-12-07T02:32:03;28.42;;;15.48;;
42770;SDS011;28426;42.872;25.314;2022-12-07T02:34:42;24.08;;;13.23;;
42770;SDS011;28426;42.872;25.314;2022-12-07T02:37:19;26.17;;;13.57;;
42770;SDS011;28426;42.872;25.314;2022-12-07T02:39:59;25.77;;;14.35;;
42770;SDS011;28426;42.872;25.314;2022-12-07T02:42:35;29.90;;;14.60;;
42770;SDS011;28426;42.872;25.314;2022-12-07T02:45:11;29.48;;;15.05;;
42770;SDS011;28426;42.872;25.314;2022-12-07T02:47:47;26.98;;;14.13;;
42770;SDS011;28426;42.872;25.314;2022-12-07T02:50:21;26.65;;;14.93;;
42770;SDS011;28426;42.872;25.314;2022-12-07T02:52:52;24.63;;;13.65;;
42770;SDS011;28426;42.872;25.314;2022-12-07T02:55:24;26.27;;;14.00;;
42770;SDS011;28426;42.872;25.314;2022-12-07T02:58:03;23.97;;;13.03;;
42770;SDS011;28426;42.872;25.314;2022-12-07T03:03:22;24.50;;;12.52;;
42770;SDS011;28426;42.872;25.314;2022-12-07T03:05:59;18.52;;;10.75;;
42770;SDS011;28426;42.872;25.314;2022-12-07T03:08:41;21.40;;;11.52;;
42770;SDS011;28426;42.872;25.314;2022-12-07T03:11:21;23.48;;;11.73;;
42770;SDS011;28426;42.872;25.314;2022-12-07T03:13:57;20.73;;;11.10;;
42770;SDS011;28426;42.872;25.314;2022-12-07T03:16:37;22.27;;;11.23;;
42770;SDS011;28426;42.872;25.314;2022-12-07T03:19:13;19.40;;;11.27;;
42770;SDS011;28426;42.872;25.314;2022-12-07T03:21:47;19.42;;;10.70;;
42770;SDS011;28426;42.872;25.314;2022-12-07T03:24:24;18.83;;;10.52;;
42770;SDS011;28426;42.872;25.314;2022-12-07T03:26:59;18.98;;;10.45;;
42770;SDS011;28426;42.872;25.314;2022-12-07T03:29:34;21.08;;;10.38;;
42770;SDS011;28426;42.872;25.314;2022-12-07T03:32:13;23.33;;;13.30;;
42770;SDS011;28426;42.872;25.314;2022-12-07T03:34:50;22.10;;;12.43;;
42770;SDS011;28426;42.872;25.314;2022-12-07T03:37:29;24.73;;;13.20;;
42770;SDS011;28426;42.872;25.314;2022-12-07T03:40:06;25.70;;;13.52;;
42770;SDS011;28426;42.872;25.314;2022-12-07T03:42:43;22.48;;;13.05;;
42770;SDS011;28426;42.872;25.314;2022-12-07T03:45:15;22.35;;;12.63;;
42770;SDS011;28426;42.872;25.314;2022-12-07T03:47:50;23.38;;;12.30;;
42770;SDS011;28426;42.872;25.314;2022-12-07T03:50:26;23.15;;;12.45;;
42770;SDS011;28426;42.872;25.314;2022-12-07T03:53:02;22.15;;;12.48;;
42770;SDS011;28426;42.872;25.314;2022-12-07T03:55:39;23.40;;;12.88;;
42770;SDS011;28426;42.872;25.314;2022-12-07T03:58:14;21.80;;;13.87;;
42770;SDS011;28426;42.872;25.314;2022-12-07T04:00:48;21.70;;;13.23;;
42770;SDS011;28426;42.872;25.314;2022-12-07T04:03:22;23.17;;;13.55;;
42770;SDS011;28426;42.872;25.314;2022-12-07T04:05:53;21.58;;;12.80;;
42770;SDS011;28426;42.872;25.314;2022-12-07T04:08:25;21.33;;;12.68;;
42770;SDS011;28426;42.872;25.314;2022-12-07T04:10:56;22.63;;;13.30;;
42770;SDS011;28426;42.872;25.314;2022-12-07T04:13:27;21.92;;;12.30;;
42770;SDS011;28426;42.872;25.314;2022-12-07T04:16:17;24.67;;;11.93;;
42770;SDS011;28426;42.872;25.314;2022-12-07T04:18:51;21.85;;;13.05;;
42770;SDS011;28426;42.872;25.314;2022-12-07T04:21:21;24.67;;;13.32;;
42770;SDS011;28426;42.872;25.314;2022-12-07T04:23:51;26.90;;;13.98;;
42770;SDS011;28426;42.872;25.314;2022-12-07T04:26:22;25.38;;;13.95;;
42770;SDS011;28426;42.872;25.314;2022-12-07T04:28:53;26.42;;;13.48;;
42770;SDS011;28426;42.872;25.314;2022-12-07T04:31:23;25.17;;;13.55;;
42770;SDS011;28426;42.872;25.314;2022-12-07T04:33:57;29.38;;;14.05;;
42770;SDS011;28426;42.872;25.314;2022-12-07T04:36:28;23.08;;;13.20;;
42770;SDS011;28426;42.872;25.314;2022-12-07T04:38:58;24.35;;;12.93;;
42770;SDS011;28426;42.872;25.314;2022-12-07T04:41:29;21.40;;;13.43;;
42770;SDS011;28426;42.872;25.314;2022-12-07T04:44:01;29.70;;;13.60;;
42770;SDS011;28426;42.872;25.314;2022-12-07T04:46:34;27.67;;;14.60;;
42770;SDS011;28426;42.872;25.314;2022-12-07T04:49:07;28.33;;;16.42;;
42770;SDS011;28426;42.872;25.314;2022-12-07T04:51:38;29.20;;;15.82;;
42770;SDS011;28426;42.872;25.314;2022-12-07T04:54:10;32.83;;;14.98;;
42770;SDS011;28426;42.872;25.314;2022-12-07T04:56:41;26.42;;;14.93;;
42770;SDS011;28426;42.872;25.314;2022-12-07T04:59:14;30.13;;;15.75;;
42770;SDS011;28426;42.872;25.314;2022-12-07T05:01:45;26.95;;;16.48;;
42770;SDS011;28426;42.872;25.314;2022-12-07T05:04:19;25.98;;;16.13;;
42770;SDS011;28426;42.872;25.314;2022-12-07T05:06:50;28.20;;;15.80;;
42770;SDS011;28426;42.872;25.314;2022-12-07T05:09:20;28.30;;;15.80;;
42770;SDS011;28426;42.872;25.314;2022-12-07T05:11:51;28.05;;;16.00;;
42770;SDS011;28426;42.872;25.314;2022-12-07T05:14:21;27.05;;;14.55;;
42770;SDS011;28426;42.872;25.314;2022-12-07T05:16:52;24.48;;;14.18;;
42770;SDS011;28426;42.872;25.314;2022-12-07T05:19:25;23.17;;;13.80;;
42770;SDS011;28426;42.872;25.314;2022-12-07T05:21:56;24.08;;;13.65;;
42770;SDS011;28426;42.872;25.314;2022-12-07T05:24:27;22.90;;;14.48;;
42770;SDS011;28426;42.872;25.314;2022-12-07T05:26:57;27.58;;;14.80;;
42770;SDS011;28426;42.872;25.314;2022-12-07T05:29:28;27.80;;;14.40;;
42770;SDS011;28426;42.872;25.314;2022-12-07T05:31:59;21.27;;;13.02;;
42770;SDS011;28426;42.872;25.314;2022-12-07T05:34:32;19.85;;;12.07;;
42770;SDS011;28426;42.872;25.314;2022-12-07T05:37:03;25.75;;;12.82;;
42770;SDS011;28426;42.872;25.314;2022-12-07T05:39:34;26.42;;;13.82;;
42770;SDS011;28426;42.872;25.314;2022-12-07T05:42:08;27.70;;;13.27;;
42770;SDS011;28426;42.872;25.314;2022-12-07T05:47:14;32.30;;;14.50;;
42770;SDS011;28426;42.872;25.314;2022-12-07T05:49:47;27.90;;;14.07;;
42770;SDS011;28426;42.872;25.314;2022-12-07T05:52:18;29.75;;;13.30;;
42770;SDS011;28426;42.872;25.314;2022-12-07T05:54:49;32.33;;;14.77;;
42770;SDS011;28426;42.872;25.314;2022-12-07T05:57:19;36.85;;;17.98;;
42770;SDS011;28426;42.872;25.314;2022-12-07T05:59:50;39.80;;;18.67;;
42770;SDS011;28426;42.872;25.314;2022-12-07T06:02:18;28.05;;;15.63;;
42770;SDS011;28426;42.872;25.314;2022-12-07T06:04:51;29.80;;;15.98;;
42770;SDS011;28426;42.872;25.314;2022-12-07T06:07:22;25.23;;;15.23;;
42770;SDS011;28426;42.872;25.314;2022-12-07T06:09:52;28.65;;;14.88;;
42770;SDS011;28426;42.872;25.314;2022-12-07T06:12:23;44.80;;;19.15;;
42770;SDS011;28426;42.872;25.314;2022-12-07T06:15:05;62.45;;;31.60;;
42770;SDS011;28426;42.872;25.314;2022-12-07T06:17:37;74.03;;;36.28;;
42770;SDS011;28426;42.872;25.314;2022-12-07T06:20:10;54.80;;;25.30;;
42770;SDS011;28426;42.872;25.314;2022-12-07T06:22:41;44.38;;;23.45;;
42770;SDS011;28426;42.872;25.314;2022-12-07T06:25:11;50.25;;;25.17;;
42770;SDS011;28426;42.872;25.314;2022-12-07T06:27:42;37.70;;;21.17;;
42770;SDS011;28426;42.872;25.314;2022-12-07T06:30:13;48.40;;;23.17;;
42770;SDS011;28426;42.872;25.314;2022-12-07T06:32:44;43.08;;;23.88;;
42770;SDS011;28426;42.872;25.314;2022-12-07T06:35:17;54.63;;;25.55;;
42770;SDS011;28426;42.872;25.314;2022-12-07T06:37:48;48.65;;;24.73;;
42770;SDS011;28426;42.872;25.314;2022-12-07T06:40:19;42.13;;;22.17;;
42770;SDS011;28426;42.872;25.314;2022-12-07T06:42:49;40.50;;;21.65;;
42770;SDS011;28426;42.872;25.314;2022-12-07T06:45:20;44.55;;;21.98;;
42770;SDS011;28426;42.872;25.314;2022-12-07T06:47:50;48.58;;;23.65;;
42770;SDS011;28426;42.872;25.314;2022-12-07T06:50:24;51.92;;;23.55;;
42770;SDS011;28426;42.872;25.314;2022-12-07T06:52:55;51.38;;;24.63;;
42770;SDS011;28426;42.872;25.314;2022-12-07T06:55:25;42.03;;;25.10;;
42770;SDS011;28426;42.872;25.314;2022-12-07T06:57:56;43.75;;;26.20;;
42770;SDS011;28426;42.872;25.314;2022-12-07T07:00:28;44.35;;;27.05;;
42770;SDS011;28426;42.872;25.314;2022-12-07T07:03:01;44.55;;;26.88;;
42770;SDS011;28426;42.872;25.314;2022-12-07T07:05:35;42.35;;;23.55;;
42770;SDS011;28426;42.872;25.314;2022-12-07T07:08:05;47.75;;;24.33;;
42770;SDS011;28426;42.872;25.314;2022-12-07T07:10:51;42.40;;;25.35;;
42770;SDS011;28426;42.872;25.314;2022-12-07T07:13:22;60.30;;;35.75;;
42770;SDS011;28426;42.872;25.314;2022-12-07T07:15:53;61.05;;;34.33;;
42770;SDS011;28426;42.872;25.314;2022-12-07T07:18:23;74.03;;;41.80;;
42770;SDS011;28426;42.872;25.314;2022-12-07T07:20:57;107.47;;;58.45;;
42770;SDS011;28426;42.872;25.314;2022-12-07T07:23:27;91.45;;;43.47;;
42770;SDS011;28426;42.872;25.314;2022-12-07T07:25:58;88.05;;;51.88;;
42770;SDS011;28426;42.872;25.314;2022-12-07T07:28:29;70.15;;;38.80;;
42770;SDS011;28426;42.872;25.314;2022-12-07T07:30:59;57.25;;;33.65;;
42770;SDS011;28426;42.872;25.314;2022-12-07T07:33:30;55.53;;;31.52;;
42770;SDS011;28426;42.872;25.314;2022-12-07T07:36:04;49.05;;;32.13;;
42770;SDS011;28426;42.872;25.314;2022-12-07T07:38:35;65.33;;;31.73;;
42770;SDS011;28426;42.872;25.314;2022-12-07T07:41:06;57.50;;;30.05;;
42770;SDS011;28426;42.872;25.314;2022-12-07T07:43:37;63.00;;;29.83;;
42770;SDS011;28426;42.872;25.314;2022-12-07T07:46:08;51.85;;;31.02;;
42770;SDS011;28426;42.872;25.314;2022-12-07T07:48:39;52.38;;;32.33;;
42770;SDS011;28426;42.872;25.314;2022-12-07T07:51:13;72.63;;;35.50;;
42770;SDS011;28426;42.872;25.314;2022-12-07T07:53:43;40.97;;;23.90;;
42770;SDS011;28426;42.872;25.314;2022-12-07T07:56:14;44.40;;;25.00;;
42770;SDS011;28426;42.872;25.314;2022-12-07T07:58:45;42.55;;;27.35;;
42770;SDS011;28426;42.872;25.314;2022-12-07T08:01:15;58.08;;;34.15;;
42770;SDS011;28426;42.872;25.314;2022-12-07T08:03:46;84.35;;;41.67;;
42770;SDS011;28426;42.872;25.314;2022-12-07T08:06:20;60.92;;;35.58;;
42770;SDS011;28426;42.872;25.314;2022-12-07T08:08:57;49.67;;;31.33;;
42770;SDS011;28426;42.872;25.314;2022-12-07T08:11:28;49.22;;;29.65;;
42770;SDS011;28426;42.872;25.314;2022-12-07T08:13:59;49.95;;;29.20;;
42770;SDS011;28426;42.872;25.314;2022-12-07T08:16:30;48.47;;;29.33;;
42770;SDS011;28426;42.872;25.314;2022-12-07T08:19:01;46.00;;;24.20;;
42770;SDS011;28426;42.872;25.314;2022-12-07T08:21:37;48.08;;;25.20;;
42770;SDS011;28426;42.872;25.314;2022-12-07T08:24:07;48.00;;;25.33;;
42770;SDS011;28426;42.872;25.314;2022-12-07T08:26:38;39.95;;;24.38;;
42770;SDS011;28426;42.872;25.314;2022-12-07T08:29:09;42.88;;;24.10;;
42770;SDS011;28426;42.872;25.314;2022-12-07T08:31:40;46.33;;;24.70;;
42770;SDS011;28426;42.872;25.314;2022-12-07T08:34:12;41.85;;;24.63;;
42770;SDS011;28426;42.872;25.314;2022-12-07T08:36:46;44.13;;;25.33;;
42770;SDS011;28426;42.872;25.314;2022-12-07T08:39:17;55.45;;;30.80;;
42770;SDS011;28426;42.872;25.314;2022-12-07T08:41:58;47.72;;;28.58;;
42770;SDS011;28426;42.872;25.314;2022-12-07T08:44:29;54.15;;;27.58;;
42770;SDS011;28426;42.872;25.314;2022-12-07T08:47:00;61.92;;;33.70;;
42770;SDS011;28426;42.872;25.314;2022-12-07T08:49:36;70.03;;;37.20;;
42770;SDS011;28426;42.872;25.314;2022-12-07T08:52:12;92.18;;;39.83;;
42770;SDS011;28426;42.872;25.314;2022-12-07T08:54:43;67.93;;;36.45;;
42770;SDS011;28426;42.872;25.314;2022-12-07T08:57:14;51.97;;;31.70;;
42770;SDS011;28426;42.872;25.314;2022-12-07T08:59:45;79.53;;;38.28;;
42770;SDS011;28426;42.872;25.314;2022-12-07T09:02:15;96.03;;;42.42;;
42770;SDS011;28426;42.872;25.314;2022-12-07T09:04:46;82.82;;;40.97;;
42770;SDS011;28426;42.872;25.314;2022-12-07T09:07:19;85.95;;;41.72;;
42770;SDS011;28426;42.872;25.314;2022-12-07T09:09:50;93.20;;;42.90;;
42770;SDS011;28426;42.872;25.314;2022-12-07T09:12:20;89.32;;;45.47;;
42770;SDS011;28426;42.872;25.314;2022-12-07T09:14:51;82.95;;;43.42;;
42770;SDS011;28426;42.872;25.314;2022-12-07T09:17:22;81.55;;;42.75;;
42770;SDS011;28426;42.872;25.314;2022-12-07T09:19:52;85.60;;;42.72;;
42770;SDS011;28426;42.872;25.314;2022-12-07T09:22:26;86.05;;;44.63;;
42770;SDS011;28426;42.872;25.314;2022-12-07T09:24:58;100.78;;;45.97;;
42770;SDS011;28426;42.872;25.314;2022-12-07T09:27:30;98.82;;;46.58;;
42770;SDS011;28426;42.872;25.314;2022-12-07T09:30:01;104.90;;;40.85;;
42770;SDS011;28426;42.872;25.314;2022-12-07T09:32:32;77.00;;;39.83;;
42770;SDS011;28426;42.872;25.314;2022-12-07T09:35:04;68.82;;;34.05;;
42770;SDS011;28426;42.872;25.314;2022-12-07T09:37:38;74.07;;;37.60;;
42770;SDS011;28426;42.872;25.314;2022-12-07T09:40:08;74.30;;;34.95;;
42770;SDS011;28426;42.872;25.314;2022-12-07T09:42:41;68.55;;;33.78;;
42770;SDS011;28426;42.872;25.314;2022-12-07T09:45:14;65.53;;;34.03;;
42770;SDS011;28426;42.872;25.314;2022-12-07T09:47:48;68.15;;;33.90;;
42770;SDS011;28426;42.872;25.314;2022-12-07T09:50:20;77.70;;;36.70;;
42770;SDS011;28426;42.872;25.314;2022-12-07T09:52:58;64.93;;;32.90;;
42770;SDS011;28426;42.872;25.314;2022-12-07T09:55:37;66.18;;;32.50;;
42770;SDS011;28426;42.872;25.314;2022-12-07T09:58:12;59.08;;;33.40;;
42770;SDS011;28426;42.872;25.314;2022-12-07T10:00:48;53.53;;;29.55;;
42770;SDS011;28426;42.872;25.314;2022-12-07T10:03:21;48.10;;;27.05;;
42770;SDS011;28426;42.872;25.314;2022-12-07T10:05:52;51.92;;;27.58;;
42770;SDS011;28426;42.872;25.314;2022-12-07T10:08:26;45.45;;;23.65;;
42770;SDS011;28426;42.872;25.314;2022-12-07T10:10:57;45.90;;;25.48;;
42770;SDS011;28426;42.872;25.314;2022-12-07T10:13:34;41.05;;;22.42;;
42770;SDS011;28426;42.872;25.314;2022-12-07T10:16:08;41.05;;;23.02;;
42770;SDS011;28426;42.872;25.314;2022-12-07T10:22:01;53.88;;;27.05;;
42770;SDS011;28426;42.872;25.314;2022-12-07T10:24:43;44.08;;;24.15;;
42770;SDS011;28426;42.872;25.314;2022-12-07T10:27:18;50.40;;;25.10;;
42770;SDS011;28426;42.872;25.314;2022-12-07T10:29:51;44.55;;;24.75;;
42770;SDS011;28426;42.872;25.314;2022-12-07T10:32:28;47.13;;;23.77;;
42770;SDS011;28426;42.872;25.314;2022-12-07T10:35:18;39.75;;;22.38;;
42770;SDS011;28426;42.872;25.314;2022-12-07T10:37:52;42.97;;;23.02;;
42770;SDS011;28426;42.872;25.314;2022-12-07T10:40:29;40.83;;;23.55;;
42770;SDS011;28426;42.872;25.314;2022-12-07T10:43:04;49.33;;;26.80;;
42770;SDS011;28426;42.872;25.314;2022-12-07T10:45:58;46.53;;;26.90;;
42770;SDS011;28426;42.872;25.314;2022-12-07T10:48:49;46.67;;;27.38;;
42770;SDS011;28426;42.872;25.314;2022-12-07T10:51:30;51.88;;;26.95;;
42770;SDS011;28426;42.872;25.314;2022-12-07T10:54:12;46.28;;;27.95;;
42770;SDS011;28426;42.872;25.314;2022-12-07T10:56:56;43.20;;;24.77;;
42770;SDS011;28426;42.872;25.314;2022-12-07T10:59:41;50.15;;;25.60;;
42770;SDS011;28426;42.872;25.314;2022-12-07T11:02:24;42.42;;;23.98;;
42770;SDS011;28426;42.872;25.314;2022-12-07T11:05:09;37.85;;;22.70;;
42770;SDS011;28426;42.872;25.314;2022-12-07T11:07:52;50.90;;;23.95;;
42770;SDS011;28426;42.872;25.314;2022-12-07T11:10:35;45.90;;;27.15;;
42770;SDS011;28426;42.872;25.314;2022-12-07T11:13:22;46.58;;;24.30;;
42770;SDS011;28426;42.872;25.314;2022-12-07T11:16:02;46.90;;;26.77;;
42770;SDS011;28426;42.872;25.314;2022-12-07T11:18:43;35.47;;;21.07;;
42770;SDS011;28426;42.872;25.314;2022-12-07T11:21:24;34.90;;;20.67;;
42770;SDS011;28426;42.872;25.314;2022-12-07T11:24:02;34.35;;;20.20;;
42770;SDS011;28426;42.872;25.314;2022-12-07T11:26:42;36.70;;;20.00;;
42770;SDS011;28426;42.872;25.314;2022-12-07T11:29:36;39.28;;;23.70;;
42770;SDS011;28426;42.872;25.314;2022-12-07T11:32:21;45.13;;;21.50;;
42770;SDS011;28426;42.872;25.314;2022-12-07T11:34:59;44.70;;;23.30;;
42770;SDS011;28426;42.872;25.314;2022-12-07T11:37:35;53.78;;;25.92;;
42770;SDS011;28426;42.872;25.314;2022-12-07T11:40:30;47.50;;;25.90;;
42770;SDS011;28426;42.872;25.314;2022-12-07T11:43:05;54.92;;;27.25;;
42770;SDS011;28426;42.872;25.314;2022-12-07T11:45:46;49.38;;;27.27;;
42770;SDS011;28426;42.872;25.314;2022-12-07T11:48:22;47.92;;;27.02;;
42770;SDS011;28426;42.872;25.314;2022-12-07T11:51:02;49.58;;;28.35;;
42770;SDS011;28426;42.872;25.314;2022-12-07T11:53:33;42.92;;;28.50;;
42770;SDS011;28426;42.872;25.314;2022-12-07T11:56:10;55.97;;;29.02;;
42770;SDS011;28426;42.872;25.314;2022-12-07T11:58:45;57.95;;;30.65;;
42770;SDS011;28426;42.872;25.314;2022-12-07T12:01:29;73.47;;;41.58;;
42770;SDS011;28426;42.872;25.314;2022-12-07T12:04:15;73.38;;;42.63;;
42770;SDS011;28426;42.872;25.314;2022-12-07T12:06:53;77.25;;;45.55;;
42770;SDS011;28426;42.872;25.314;2022-12-07T12:09:25;92.88;;;51.15;;
42770;SDS011;28426;42.872;25.314;2022-12-07T12:12:14;124.47;;;64.32;;
42770;SDS011;28426;42.872;25.314;2022-12-07T12:15:29;107.65;;;61.42;;
42770;SDS011;28426;42.872;25.314;2022-12-07T12:18:22;82.03;;;44.97;;
42770;SDS011;28426;42.872;25.314;2022-12-07T12:21:04;73.00;;;37.97;;
42770;SDS011;28426;42.872;25.314;2022-12-07T12:26:14;50.70;;;27.10;;
42770;SDS011;28426;42.872;25.314;2022-12-07T12:28:50;42.78;;;21.58;;
42770;SDS011;28426;42.872;25.314;2022-12-07T12:31:31;42.10;;;21.33;;
42770;SDS011;28426;42.872;25.314;2022-12-07T12:58:42;47.33;;;24.52;;
42770;SDS011;28426;42.872;25.314;2022-12-07T13:04:22;50.38;;;23.98;;
42770;SDS011;28426;42.872;25.314;2022-12-07T13:10:34;44.65;;;21.40;;
42770;SDS011;28426;42.872;25.314;2022-12-07T13:13:29;48.03;;;24.98;;
42770;SDS011;28426;42.872;25.314;2022-12-07T13:22:07;36.45;;;20.58;;
42770;SDS011;28426;42.872;25.314;2022-12-07T13:25:17;33.17;;;19.13;;
42770;SDS011;28426;42.872;25.314;2022-12-07T13:27:54;36.97;;;18.52;;
42770;SDS011;28426;42.872;25.314;2022-12-07T13:30:27;38.38;;;19.40;;
42770;SDS011;28426;42.872;25.314;2022-12-07T13:32:59;49.97;;;18.77;;
42770;SDS011;28426;42.872;25.314;2022-12-07T13:35:30;48.20;;;20.33;;
42770;SDS011;28426;42.872;25.314;2022-12-07T13:38:15;37.87;;;18.70;;
42770;SDS011;28426;42.872;25.314;2022-12-07T13:41:02;33.30;;;18.13;;
42770;SDS011;28426;42.872;25.314;2022-12-07T13:43:42;43.95;;;20.30;;
42770;SDS011;28426;42.872;25.314;2022-12-07T13:46:18;36.92;;;20.88;;
42770;SDS011;28426;42.872;25.314;2022-12-07T13:48:54;44.05;;;21.95;;
42770;SDS011;28426;42.872;25.314;2022-12-07T13:51:25;40.63;;;22.80;;
42770;SDS011;28426;42.872;25.314;2022-12-07T13:54:06;49.20;;;25.50;;
42770;SDS011;28426;42.872;25.314;2022-12-07T13:56:40;44.55;;;24.00;;
42770;SDS011;28426;42.872;25.314;2022-12-07T13:59:13;43.50;;;25.13;;
42770;SDS011;28426;42.872;25.314;2022-12-07T14:01:47;59.00;;;27.63;;
42770;SDS011;28426;42.872;25.314;2022-12-07T14:04:31;46.03;;;26.98;;
42770;SDS011;28426;42.872;25.314;2022-12-07T14:07:18;45.30;;;27.23;;
42770;SDS011;28426;42.872;25.314;2022-12-07T14:09:57;48.55;;;28.08;;
42770;SDS011;28426;42.872;25.314;2022-12-07T14:12:30;42.33;;;24.02;;
42770;SDS011;28426;42.872;25.314;2022-12-07T14:15:02;42.63;;;23.67;;
42770;SDS011;28426;42.872;25.314;2022-12-07T14:17:33;39.28;;;22.05;;
42770;SDS011;28426;42.872;25.314;2022-12-07T14:20:27;48.58;;;24.00;;
42770;SDS011;28426;42.872;25.314;2022-12-07T14:22:59;44.40;;;23.80;;
42770;SDS011;28426;42.872;25.314;2022-12-07T14:25:47;44.13;;;24.35;;
42770;SDS011;28426;42.872;25.314;2022-12-07T14:28:28;39.63;;;23.50;;
42770;SDS011;28426;42.872;25.314;2022-12-07T14:31:01;41.83;;;25.27;;
42770;SDS011;28426;42.872;25.314;2022-12-07T14:33:32;41.75;;;24.58;;
42770;SDS011;28426;42.872;25.314;2022-12-07T14:36:03;38.17;;;19.70;;
42770;SDS011;28426;42.872;25.314;2022-12-07T14:38:34;27.80;;;16.30;;
42770;SDS011;28426;42.872;25.314;2022-12-07T14:41:10;29.17;;;16.08;;
42770;SDS011;28426;42.872;25.314;2022-12-07T14:43:56;28.95;;;17.48;;
42770;SDS011;28426;42.872;25.314;2022-12-07T14:46:47;40.58;;;16.65;;
42770;SDS011;28426;42.872;25.314;2022-12-07T14:49:39;29.83;;;16.33;;
42770;SDS011;28426;42.872;25.314;2022-12-07T14:52:11;35.03;;;19.52;;
42770;SDS011;28426;42.872;25.314;2022-12-07T14:55:08;36.78;;;18.77;;
42770;SDS011;28426;42.872;25.314;2022-12-07T14:57:47;33.58;;;17.67;;
42770;SDS011;28426;42.872;25.314;2022-12-07T15:00:18;32.92;;;18.75;;
42770;SDS011;28426;42.872;25.314;2022-12-07T15:02:50;38.40;;;20.83;;
42770;SDS011;28426;42.872;25.314;2022-12-07T15:05:21;34.65;;;21.05;;
42770;SDS011;28426;42.872;25.314;2022-12-07T15:07:53;40.90;;;22.52;;
42770;SDS011;28426;42.872;25.314;2022-12-07T15:10:24;40.00;;;23.95;;
42770;SDS011;28426;42.872;25.314;2022-12-07T15:13:00;46.88;;;25.20;;
42770;SDS011;28426;42.872;25.314;2022-12-07T15:15:43;72.45;;;37.72;;
42770;SDS011;28426;42.872;25.314;2022-12-07T15:18:14;66.75;;;35.85;;
42770;SDS011;28426;42.872;25.314;2022-12-07T15:20:45;52.65;;;31.60;;
42770;SDS011;28426;42.872;25.314;2022-12-07T15:23:17;62.00;;;34.35;;
42770;SDS011;28426;42.872;25.314;2022-12-07T15:25:48;59.83;;;34.92;;
42770;SDS011;28426;42.872;25.314;2022-12-07T15:28:21;68.30;;;41.10;;
42770;SDS011;28426;42.872;25.314;2022-12-07T15:30:52;82.50;;;45.72;;
42770;SDS011;28426;42.872;25.314;2022-12-07T15:33:23;70.93;;;41.75;;
42770;SDS011;28426;42.872;25.314;2022-12-07T15:35:54;76.32;;;43.45;;
42770;SDS011;28426;42.872;25.314;2022-12-07T15:38:24;86.70;;;48.50;;
42770;SDS011;28426;42.872;25.314;2022-12-07T15:41:17;71.60;;;42.55;;
42770;SDS011;28426;42.872;25.314;2022-12-07T15:43:50;82.78;;;43.85;;
42770;SDS011;28426;42.872;25.314;2022-12-07T15:49:06;69.15;;;39.08;;